Aérodrome :
LOGIN :

S'inscrire | Disclaimer

   EN    FR    IT 

 










Légende :    VFR   VFR Marginal   IFR   IFR Intensif   IFR Très Intensif
Visi : 
Plafond : 
>= 8 km
>= 3000ft
5 à 8 km
1000 à 3000 ft
1500m à 5 km
500 à 1000 ft
800 à 1500m
200 à 500 ft
< 800m
< 200 ft
Symboles :   Orages  Brouillard  Fortes neiges  Fortes précipitations  Vent > 20 kt
SIGMETs :   Divers  Orages  Givrage  Turbulence  Onde Orograph.  Cendres Volcan.







- Altitude de l'aérodrome : 230 ft
- Code IATA : TBJ


DTKA - Tabarka 7 Novembre

DERNIER METAR :
  • 261800Z 06010KT 9999 FEW020 26/13 Q1013 NOSIG

METARs EXPIRÉS :
  • 261700Z 04007KT 360V070 9999 FEW020 27/14 Q1013 NOSIG
  • 261600Z 35010KT 9999 FEW020 25/17 Q1013 NOSIG

TAF TAF DTKA
Valide du 26 à 16h jusqu'au 27 à 01h UTC


261513Z 2616/2701 36008KT 9999 FEW020
Pas de NOTAMs connus pour ce terrain.



MET'MAP, la Météo Aéronautique d'un coup d'oeil ! - Copyright ORBIFLY Décembre 2007 - Disclaimer

ORBIFLY MET'MAP TEAM :

Programmation & Développement : Alexandra Zaïnal
Conception & Développement : Baudouin d'Aumeries
Co-Programmation & Développement : Marc-Olivier Méhu
Soutien technique & logistique : Manuel Goepfert

Contact : metmap@orbifly.com




SOURCES & CREDITS :

   NOAA